createdAt,value
2022-10-04T00:03:50.062Z,11.5
2022-10-04T00:08:49.756Z,11.5
2022-10-04T00:13:50.447Z,11.5
2022-10-04T00:18:49.971Z,11.5
2022-10-04T00:23:50.539Z,11.4
2022-10-04T00:28:50.074Z,11.4
2022-10-04T00:33:49.717Z,11.3
2022-10-04T00:38:50.208Z,11.3
2022-10-04T00:43:50.070Z,11.2
2022-10-04T00:48:50.538Z,11.2
2022-10-04T00:53:49.871Z,11
2022-10-04T00:58:50.164Z,11
2022-10-04T01:03:50.521Z,10.8
2022-10-04T01:08:49.944Z,10.8
2022-10-04T01:13:50.466Z,10.7
2022-10-04T01:18:49.723Z,10.7
2022-10-04T01:23:50.125Z,10.6
2022-10-04T01:28:50.599Z,10.6
2022-10-04T01:33:50.158Z,10.4
2022-10-04T01:38:50.503Z,10.4
2022-10-04T01:43:49.769Z,10.2
2022-10-04T01:48:50.569Z,10.2
2022-10-04T01:53:49.866Z,10.2
2022-10-04T01:58:49.886Z,10.2
2022-10-04T02:03:50.288Z,10.1
2022-10-04T02:08:50.723Z,10.1
2022-10-04T02:13:50.188Z,10
2022-10-04T02:18:50.470Z,10
2022-10-04T02:23:49.799Z,9.9
2022-10-04T02:28:50.236Z,9.9
2022-10-04T02:33:49.675Z,9.8
2022-10-04T02:38:50.126Z,9.8
2022-10-04T02:43:49.936Z,9.8
2022-10-04T02:48:50.507Z,9.8
2022-10-04T02:53:50.040Z,9.7
2022-10-04T02:58:50.352Z,9.7
2022-10-04T03:03:50.087Z,9.7
2022-10-04T03:08:50.062Z,9.7
2022-10-04T03:13:50.027Z,9.6
2022-10-04T03:18:50.322Z,9.6
2022-10-04T03:23:49.841Z,9.6
2022-10-04T03:28:50.563Z,9.6
2022-10-04T03:33:50.194Z,9.6
2022-10-04T03:38:49.999Z,9.6
2022-10-04T03:43:50.657Z,9.6
2022-10-04T03:48:50.149Z,9.6
2022-10-04T03:53:49.730Z,9.6
2022-10-04T03:58:50.388Z,9.6
2022-10-04T04:03:50.621Z,9.6
2022-10-04T04:08:49.789Z,9.6
2022-10-04T04:13:50.528Z,9.6
2022-10-04T04:18:49.878Z,9.6
2022-10-04T04:23:50.646Z,9.6
2022-10-04T04:28:50.000Z,9.6
2022-10-04T04:33:50.813Z,9.6
2022-10-04T04:38:49.930Z,9.6
2022-10-04T04:43:50.389Z,9.6
2022-10-04T04:48:49.793Z,9.6
2022-10-04T04:53:50.274Z,9.6
2022-10-04T04:58:50.623Z,9.6
2022-10-04T05:03:50.160Z,9.7
2022-10-04T05:08:50.695Z,9.7
2022-10-04T05:13:50.215Z,9.7
2022-10-04T05:18:50.654Z,9.7
2022-10-04T05:23:50.217Z,9.7
2022-10-04T05:28:50.708Z,9.7
2022-10-04T05:33:50.135Z,9.7
2022-10-04T05:38:50.456Z,9.7
2022-10-04T05:43:49.967Z,9.7
2022-10-04T05:48:50.193Z,9.7
2022-10-04T05:53:50.629Z,9.8
2022-10-04T05:58:49.939Z,9.8
2022-10-04T06:03:50.505Z,9.8
2022-10-04T06:08:49.902Z,9.8
2022-10-04T06:13:50.383Z,9.8
2022-10-04T06:18:49.968Z,9.8
2022-10-04T06:23:50.224Z,9.8
2022-10-04T06:28:50.034Z,9.8
2022-10-04T06:33:50.791Z,9.9
2022-10-04T06:38:50.360Z,9.9
2022-10-04T06:43:49.856Z,9.9
2022-10-04T06:48:50.392Z,9.9
2022-10-04T06:53:50.059Z,10
2022-10-04T06:58:50.533Z,10
2022-10-04T07:03:51.768Z,10
2022-10-04T07:08:50.932Z,10
2022-10-04T07:13:50.376Z,10
2022-10-04T07:18:50.776Z,10
2022-10-04T07:23:50.269Z,10.1
2022-10-04T07:28:50.618Z,10.1
2022-10-04T07:33:50.258Z,10.2
2022-10-04T07:38:50.848Z,10.2
2022-10-04T07:43:50.612Z,10.3
2022-10-04T07:48:49.904Z,10.3
2022-10-04T07:53:50.221Z,10.6
2022-10-04T07:58:50.413Z,10.6
2022-10-04T08:03:49.873Z,10.7
2022-10-04T08:08:50.217Z,10.7
2022-10-04T08:13:50.825Z,10.9
2022-10-04T08:18:50.952Z,10.9
2022-10-04T08:23:50.178Z,11
2022-10-04T08:28:50.131Z,11
2022-10-04T08:33:50.613Z,11.2
2022-10-04T08:38:50.935Z,11.2
2022-10-04T08:43:50.435Z,11.4
2022-10-04T08:48:50.807Z,11.4
2022-10-04T08:53:50.671Z,11.7
2022-10-04T08:58:50.218Z,11.7
2022-10-04T09:03:50.688Z,11.9
2022-10-04T09:08:50.192Z,11.9
2022-10-04T09:13:50.258Z,12.3
2022-10-04T09:18:50.634Z,12.3
2022-10-04T09:23:50.450Z,12.6
2022-10-04T09:28:50.104Z,12.6
2022-10-04T09:33:50.242Z,12.8
2022-10-04T09:38:57.783Z,12.8
2022-10-04T09:43:50.478Z,12.9
2022-10-04T09:48:50.456Z,12.9
2022-10-04T09:53:50.884Z,13.1
2022-10-04T09:58:50.240Z,13.1
2022-10-04T10:03:50.042Z,13.2
2022-10-04T10:08:50.728Z,13.2
2022-10-04T10:13:50.218Z,13.3
2022-10-04T10:18:50.638Z,13.3
2022-10-04T10:23:50.198Z,13.5
2022-10-04T10:28:50.718Z,13.5
2022-10-04T10:33:49.997Z,13.7
2022-10-04T10:38:50.393Z,13.7
2022-10-04T10:43:50.101Z,14.3
2022-10-04T10:48:50.552Z,14.3
2022-10-04T10:53:50.877Z,15.4
2022-10-04T10:58:50.349Z,15.4
2022-10-04T11:03:51.099Z,16.3
2022-10-04T11:08:50.783Z,16.3
2022-10-04T11:13:50.365Z,16.8
2022-10-04T11:18:50.511Z,16.8
2022-10-04T11:23:50.418Z,16.8
2022-10-04T11:28:50.977Z,16.8
2022-10-04T11:33:50.656Z,17.3
2022-10-04T11:38:51.039Z,17.3
2022-10-04T11:43:50.609Z,17.5
2022-10-04T11:48:50.072Z,17.5
2022-10-04T11:53:50.826Z,17.7
2022-10-04T11:58:50.120Z,17.7
2022-10-04T12:03:50.495Z,17.9
2022-10-04T12:08:50.405Z,17.9
2022-10-04T12:13:50.020Z,18.2
2022-10-04T12:18:50.387Z,18.2
2022-10-04T12:23:50.935Z,18.2
2022-10-04T12:28:50.424Z,18.2
2022-10-04T12:33:50.074Z,18
2022-10-04T12:38:50.736Z,18
2022-10-04T12:43:50.154Z,17.9
2022-10-04T12:48:50.692Z,17.9
2022-10-04T12:53:50.363Z,17.8
2022-10-04T12:58:50.657Z,17.8
2022-10-04T13:03:50.436Z,17.8
2022-10-04T13:08:51.122Z,17.8
2022-10-04T13:13:50.448Z,18.1
2022-10-04T13:18:50.905Z,18.1
2022-10-04T13:23:51.035Z,18.3
2022-10-04T13:28:50.503Z,18.3
2022-10-04T13:33:50.943Z,18.6
2022-10-04T13:38:50.184Z,18.6
2022-10-04T13:43:50.954Z,18.6
2022-10-04T13:48:50.226Z,18.6
2022-10-04T13:53:53.963Z,18.6
2022-10-04T13:58:51.007Z,18.6
2022-10-04T14:03:50.372Z,18.8
2022-10-04T14:08:50.783Z,18.8
2022-10-04T14:13:50.344Z,18.9
2022-10-04T14:18:50.918Z,18.9
2022-10-04T14:23:50.498Z,18.7
2022-10-04T14:28:51.147Z,18.7
2022-10-04T14:33:50.534Z,18.6
2022-10-04T14:38:50.820Z,18.6
2022-10-04T14:43:50.400Z,18.7
2022-10-04T14:48:50.737Z,18.7
2022-10-04T14:53:50.403Z,18.6
2022-10-04T14:58:50.672Z,18.6
2022-10-04T15:03:50.442Z,18.3
2022-10-04T15:08:51.116Z,18.3
2022-10-04T15:13:50.770Z,18.1
2022-10-04T15:18:50.256Z,18.1
2022-10-04T15:23:50.733Z,17.8
2022-10-04T15:28:51.116Z,17.8
2022-10-04T15:33:50.881Z,17.7
2022-10-04T15:38:50.197Z,17.7
2022-10-04T15:43:50.228Z,17.4
2022-10-04T15:48:50.711Z,17.4
2022-10-04T15:53:50.483Z,17.3
2022-10-04T15:58:53.153Z,17.3
2022-10-04T16:03:50.588Z,17.2
2022-10-04T16:08:50.302Z,17.2
2022-10-04T16:13:51.150Z,17
2022-10-04T16:18:50.572Z,17
2022-10-04T16:23:50.517Z,16.8
2022-10-04T16:28:50.917Z,16.8
2022-10-04T16:33:50.278Z,16.6
2022-10-04T16:38:50.632Z,16.6
2022-10-04T16:43:50.410Z,16.3
2022-10-04T16:48:51.030Z,16.3
2022-10-04T16:53:50.395Z,16
2022-10-04T16:58:51.053Z,16
2022-10-04T17:03:50.619Z,15.6
2022-10-04T17:08:50.518Z,15.6
2022-10-04T17:13:55.703Z,15.2
2022-10-04T17:18:50.654Z,15.2
2022-10-04T17:23:51.196Z,14.8
2022-10-04T17:28:50.676Z,14.8
2022-10-04T17:33:51.077Z,14.5
2022-10-04T17:38:50.365Z,14.5
2022-10-04T17:43:50.868Z,14.1
2022-10-04T17:48:51.024Z,14.1
2022-10-04T17:53:50.516Z,13.7
2022-10-04T17:58:51.029Z,13.7
2022-10-04T18:03:50.702Z,13.4
2022-10-04T18:08:50.579Z,13.4
2022-10-04T18:13:51.007Z,13.2
2022-10-04T18:18:50.511Z,13.2
2022-10-04T18:23:51.136Z,12.9
2022-10-04T18:28:50.311Z,12.9
2022-10-04T18:33:50.722Z,12.7
2022-10-04T18:38:51.099Z,12.7
2022-10-04T18:43:50.799Z,12.4
2022-10-04T18:48:51.196Z,12.4
2022-10-04T18:53:50.720Z,12.3
2022-10-04T18:58:51.067Z,12.3
2022-10-04T19:03:50.682Z,12.1
2022-10-04T19:08:51.205Z,12.1
2022-10-04T19:13:50.494Z,12
2022-10-04T19:18:50.793Z,12
2022-10-04T19:23:51.181Z,11.8
2022-10-04T19:28:50.658Z,11.8
2022-10-04T19:33:51.177Z,11.8
2022-10-04T19:38:50.643Z,11.8
2022-10-04T19:43:51.286Z,11.6
2022-10-04T19:48:50.666Z,11.6
2022-10-04T19:53:51.228Z,11.5
2022-10-04T19:58:50.656Z,11.5
2022-10-04T20:03:51.059Z,11.4
2022-10-04T20:08:50.600Z,11.4
2022-10-04T20:13:51.214Z,11.3
2022-10-04T20:18:50.997Z,11.3
2022-10-04T20:23:51.259Z,11.2
2022-10-04T20:28:50.653Z,11.2
2022-10-04T20:33:51.022Z,11.1
2022-10-04T20:38:50.444Z,11.1
2022-10-04T20:43:51.145Z,11
2022-10-04T20:48:50.977Z,11
2022-10-04T20:53:50.613Z,10.8
2022-10-04T20:58:51.323Z,10.8
2022-10-04T21:03:50.701Z,10.7
2022-10-04T21:08:50.703Z,10.7
2022-10-04T21:13:50.931Z,10.6
2022-10-04T21:18:50.411Z,10.6
2022-10-04T21:23:50.910Z,10.5
2022-10-04T21:28:51.358Z,10.5
2022-10-04T21:33:51.072Z,10.4
2022-10-04T21:38:50.521Z,10.4
2022-10-04T21:43:51.045Z,10.5
2022-10-04T21:48:50.426Z,10.5
2022-10-04T21:53:51.377Z,10.5
2022-10-04T21:58:50.995Z,10.5
2022-10-04T22:03:51.161Z,10.5
2022-10-04T22:08:50.897Z,10.5
2022-10-04T22:13:50.398Z,10.5
2022-10-04T22:18:50.937Z,10.5
2022-10-04T22:23:50.893Z,10.4
2022-10-04T22:28:50.506Z,10.4
2022-10-04T22:33:50.852Z,10.4
2022-10-04T22:38:50.472Z,10.4
2022-10-04T22:43:51.071Z,10.3
2022-10-04T22:48:51.377Z,10.3
2022-10-04T22:53:51.162Z,10.3
2022-10-04T22:58:50.546Z,10.3
2022-10-04T23:03:50.722Z,10.2
2022-10-04T23:08:50.473Z,10.2
2022-10-04T23:13:51.143Z,10.2
2022-10-04T23:18:50.664Z,10.2
2022-10-04T23:23:51.208Z,10.2
2022-10-04T23:28:50.485Z,10.2
2022-10-04T23:33:50.498Z,10.2
2022-10-04T23:38:50.650Z,10.2
2022-10-04T23:43:51.040Z,10.2
2022-10-04T23:48:51.375Z,10.2
2022-10-04T23:53:55.745Z,10.1
2022-10-04T23:58:51.194Z,10.1
